Time;durP1;ratioP1;P1;durP2;ratioP2;P2;SDS_P1;SDS_P2;PMS_P1;PMS_P2;Temp;Humidity;BMP_temperature;BMP_pressure;BME280_temperature;BME280_humidity;BME280_pressure;Samples;Min_cycle;Max_cycle;Signal;HPM_P1;HPM_P2
2022/12/22 03:26:21;;;;;;;17.63;9.23;;;;;;;;;;6066736;23;20410;-85
2022/12/22 03:28:46;;;;;;;16.02;9.63;;;;;;;;;;6057918;23;20010;-85
2022/12/22 03:31:12;;;;;;;16.33;8.82;;;;;;;;;;6068347;23;20382;-85
2022/12/22 03:33:38;;;;;;;17.05;9.32;;;;;;;;;;6068244;23;20342;-84
2022/12/22 03:36:04;;;;;;;17.17;9.68;;;;;;;;;;6067302;23;20018;-85
2022/12/22 03:38:30;;;;;;;20.42;10.48;;;;;;;;;;6068051;23;20097;-85
2022/12/22 03:40:55;;;;;;;17.33;9.38;;;;;;;;;;6067552;23;20044;-86
2022/12/22 03:51:35;;;;;;;17.35;9.45;;;;;;;;;;6095232;23;20025;-85
2022/12/22 03:54:01;;;;;;;17.13;9.63;;;;;;;;;;6068562;23;20335;-85
2022/12/22 03:56:26;;;;;;;18.25;9.93;;;;;;;;;;6067160;23;20066;-84
2022/12/22 03:58:51;;;;;;;17.35;10.07;;;;;;;;;;6067531;23;20290;-85
2022/12/22 04:01:17;;;;;;;21.00;10.35;;;;;;;;;;6067207;23;20018;-85
2022/12/22 04:03:42;;;;;;;18.05;10.10;;;;;;;;;;6068256;23;20387;-85
2022/12/22 04:06:08;;;;;;;19.45;10.20;;;;;;;;;;6090918;23;20021;-85
2022/12/22 04:08:33;;;;;;;19.30;9.98;;;;;;;;;;6067626;23;20021;-85
2022/12/22 04:13:42;;;;;;;16.15;9.07;;;;;;;;;;6095857;23;20016;-85
2022/12/22 04:16:07;;;;;;;19.33;9.48;;;;;;;;;;6067204;23;20441;-85
2022/12/22 04:18:33;;;;;;;18.40;9.95;;;;;;;;;;6091468;23;20028;-85
2022/12/22 04:20:58;;;;;;;18.60;9.13;;;;;;;;;;6067215;23;20017;-85
2022/12/22 04:23:24;;;;;;;21.38;11.02;;;;;;;;;;6067669;23;20020;-85
2022/12/22 04:25:49;;;;;;;18.33;10.73;;;;;;;;;;6066778;23;20024;-85
2022/12/22 04:28:14;;;;;;;18.95;9.85;;;;;;;;;;6090260;23;20010;-85
2022/12/22 04:30:40;;;;;;;17.73;9.85;;;;;;;;;;6091222;23;20014;-83
2022/12/22 04:33:05;;;;;;;20.40;9.90;;;;;;;;;;6067166;23;20018;-86
2022/12/22 04:35:31;;;;;;;16.08;9.35;;;;;;;;;;6066707;23;20037;-85
2022/12/22 04:37:56;;;;;;;18.35;9.85;;;;;;;;;;6068016;23;20499;-86
2022/12/22 04:40:21;;;;;;;16.95;10.05;;;;;;;;;;6090464;23;20013;-85
2022/12/22 04:42:47;;;;;;;19.58;9.90;;;;;;;;;;6067336;23;20010;-85
2022/12/22 04:45:12;;;;;;;17.65;9.75;;;;;;;;;;6067969;23;20017;-85
2022/12/22 04:47:37;;;;;;;18.88;9.95;;;;;;;;;;6066653;23;20014;-85
2022/12/22 04:50:03;;;;;;;20.33;10.07;;;;;;;;;;6067037;23;20038;-86
2022/12/22 04:52:29;;;;;;;21.92;10.98;;;;;;;;;;6066695;23;20013;-84
2022/12/22 04:54:54;;;;;;;21.60;11.48;;;;;;;;;;6091312;23;20081;-84
2022/12/22 04:57:20;;;;;;;21.38;10.43;;;;;;;;;;6066812;23;20098;-86
2022/12/22 04:59:46;;;;;;;18.70;10.05;;;;;;;;;;6091339;23;20034;-86
2022/12/22 05:02:11;;;;;;;20.20;10.77;;;;;;;;;;6091351;23;20498;-84
2022/12/22 05:04:37;;;;;;;21.13;10.85;;;;;;;;;;6066709;23;20089;-86
2022/12/22 05:07:02;;;;;;;22.95;10.65;;;;;;;;;;6090630;23;20032;-84
2022/12/22 05:09:28;;;;;;;20.10;11.20;;;;;;;;;;6067645;23;20560;-84
2022/12/22 05:11:53;;;;;;;21.15;11.13;;;;;;;;;;6066045;23;20017;-85
2022/12/22 05:14:39;;;;;;;22.27;11.43;;;;;;;;;;6067267;23;20473;-84
2022/12/22 05:17:04;;;;;;;19.42;10.48;;;;;;;;;;6026327;23;20027;-84
2022/12/22 05:19:29;;;;;;;20.10;10.77;;;;;;;;;;6004593;23;20114;-86
2022/12/22 05:21:55;;;;;;;21.20;11.23;;;;;;;;;;5979448;23;20019;-85
2022/12/22 05:24:20;;;;;;;18.98;10.68;;;;;;;;;;6003470;23;20347;-85
2022/12/22 05:26:45;;;;;;;20.10;10.98;;;;;;;;;;6025257;23;20019;-86
2022/12/22 05:29:11;;;;;;;22.23;12.05;;;;;;;;;;6004001;23;20023;-85
2022/12/22 05:31:36;;;;;;;23.23;11.18;;;;;;;;;;5980141;23;20469;-85
2022/12/22 05:34:02;;;;;;;19.30;10.93;;;;;;;;;;6003187;23;20491;-85
2022/12/22 05:36:27;;;;;;;21.73;11.60;;;;;;;;;;6003311;23;20027;-85
2022/12/22 05:38:52;;;;;;;18.88;10.43;;;;;;;;;;5980010;23;20546;-85
2022/12/22 05:41:18;;;;;;;20.60;10.50;;;;;;;;;;6002430;23;20106;-85
2022/12/22 05:43:43;;;;;;;20.42;11.68;;;;;;;;;;6005623;23;20015;-85
2022/12/22 05:46:09;;;;;;;24.08;12.50;;;;;;;;;;6004002;23;20451;-85
2022/12/22 05:48:35;;;;;;;21.30;11.88;;;;;;;;;;6005391;23;20031;-85
2022/12/22 05:51:00;;;;;;;20.55;11.55;;;;;;;;;;6004713;23;20030;-85
2022/12/22 05:53:26;;;;;;;20.58;11.55;;;;;;;;;;6026180;23;20093;-86
2022/12/22 05:55:51;;;;;;;22.20;11.23;;;;;;;;;;6091592;23;20018;-84
2022/12/22 05:58:17;;;;;;;21.70;11.88;;;;;;;;;;6068152;23;20068;-85
2022/12/22 06:00:43;;;;;;;21.83;11.57;;;;;;;;;;6068291;23;20013;-85
2022/12/22 06:03:08;;;;;;;23.77;11.75;;;;;;;;;;6069014;23;20021;-85
2022/12/22 06:05:33;;;;;;;21.80;11.57;;;;;;;;;;6092068;23;20037;-85
2022/12/22 06:07:59;;;;;;;23.55;11.35;;;;;;;;;;6069012;23;20018;-86
2022/12/22 06:10:24;;;;;;;23.90;11.07;;;;;;;;;;6067841;23;20022;-85
2022/12/22 06:12:50;;;;;;;22.90;11.40;;;;;;;;;;6069258;23;20006;-85
2022/12/22 06:15:15;;;;;;;23.75;12.23;;;;;;;;;;6067776;23;20087;-85
2022/12/22 06:17:40;;;;;;;21.63;10.48;;;;;;;;;;6069138;23;20599;-85
2022/12/22 06:20:07;;;;;;;21.00;11.30;;;;;;;;;;6067996;23;20050;-85
2022/12/22 06:22:33;;;;;;;23.00;11.50;;;;;;;;;;6067646;23;20028;-86
2022/12/22 06:24:58;;;;;;;22.10;11.43;;;;;;;;;;6092387;23;20013;-85
2022/12/22 06:27:24;;;;;;;20.90;11.48;;;;;;;;;;6067549;23;20346;-83
2022/12/22 06:29:49;;;;;;;22.08;10.85;;;;;;;;;;6068650;23;20022;-84
2022/12/22 06:32:15;;;;;;;19.80;11.30;;;;;;;;;;6067295;23;20417;-84
2022/12/22 06:34:40;;;;;;;25.38;12.70;;;;;;;;;;6069586;23;20017;-83
2022/12/22 06:37:06;;;;;;;22.45;11.60;;;;;;;;;;6091411;23;20022;-84
2022/12/22 06:39:31;;;;;;;23.55;11.43;;;;;;;;;;6092557;23;20022;-85
2022/12/22 06:44:43;;;;;;;22.48;11.07;;;;;;;;;;6095491;23;20087;-85
2022/12/22 06:47:09;;;;;;;21.17;11.13;;;;;;;;;;6090501;23;20061;-85
2022/12/22 06:49:34;;;;;;;21.38;10.98;;;;;;;;;;6067505;23;20022;-85
2022/12/22 06:52:00;;;;;;;20.75;10.57;;;;;;;;;;6091444;23;20438;-84
2022/12/22 06:54:25;;;;;;;22.30;11.30;;;;;;;;;;6089735;23;20137;-84
2022/12/22 06:56:51;;;;;;;21.08;11.20;;;;;;;;;;6065307;23;20018;-84
2022/12/22 06:59:16;;;;;;;22.63;10.85;;;;;;;;;;6091478;23;20022;-84
2022/12/22 07:01:41;;;;;;;19.10;10.88;;;;;;;;;;6092110;23;20014;-84
2022/12/22 07:04:08;;;;;;;22.02;11.48;;;;;;;;;;6067822;23;20642;-85
2022/12/22 07:06:33;;;;;;;22.13;12.10;;;;;;;;;;6090171;23;20014;-83
2022/12/22 07:09:01;;;;;;;21.98;10.85;;;;;;;;;;6067862;23;20021;-84
2022/12/22 07:11:26;;;;;;;21.90;10.55;;;;;;;;;;6092223;23;20006;-85
2022/12/22 07:13:52;;;;;;;21.52;11.07;;;;;;;;;;6091630;23;20088;-85
2022/12/22 07:16:17;;;;;;;21.77;10.77;;;;;;;;;;6037560;23;20035;-85
2022/12/22 07:18:43;;;;;;;21.10;10.18;;;;;;;;;;6081343;23;20018;-83
2022/12/22 07:21:11;;;;;;;19.77;10.25;;;;;;;;;;6042657;23;20350;-85
2022/12/22 07:23:36;;;;;;;;;;;;;;;;;;6055864;23;20461;-84
2022/12/22 07:26:02;;;;;;;22.70;11.38;;;;;;;;;;6068628;23;19916;-84
2022/12/22 07:28:28;;;;;;;22.33;11.07;;;;;;;;;;6070678;23;20010;-83
2022/12/22 07:30:54;;;;;;;22.90;11.63;;;;;;;;;;6067579;23;20086;-85
2022/12/22 07:33:19;;;;;;;23.15;11.68;;;;;;;;;;6067798;23;20014;-85
2022/12/22 07:35:45;;;;;;;22.52;11.73;;;;;;;;;;6066255;23;20021;-85
2022/12/22 07:38:11;;;;;;;22.13;11.02;;;;;;;;;;6068582;23;20049;-85
2022/12/22 07:40:36;;;;;;;24.23;11.43;;;;;;;;;;6053199;23;20069;-85
2022/12/22 07:43:02;;;;;;;23.15;11.35;;;;;;;;;;6067821;23;20092;-84
2022/12/22 07:45:27;;;;;;;21.73;10.85;;;;;;;;;;6066716;23;20033;-85
2022/12/22 07:47:59;;;;;;;19.88;10.98;;;;;;;;;;6068173;23;20038;-85
2022/12/22 07:50:26;;;;;;;19.70;10.60;;;;;;;;;;6091438;23;20458;-85
2022/12/22 07:52:56;;;;;;;21.77;10.73;;;;;;;;;;6068233;23;20328;-85
2022/12/22 07:55:23;;;;;;;21.52;11.07;;;;;;;;;;6049486;23;20570;-85
2022/12/22 07:57:49;;;;;;;23.25;11.18;;;;;;;;;;6045038;23;20466;-85
2022/12/22 08:00:15;;;;;;;19.45;10.88;;;;;;;;;;6091561;23;20014;-85
2022/12/22 08:02:40;;;;;;;20.27;10.88;;;;;;;;;;6067341;23;20018;-85
2022/12/22 08:05:09;;;;;;;20.92;10.90;;;;;;;;;;6066245;23;20022;-85
2022/12/22 08:07:34;;;;;;;21.27;10.55;;;;;;;;;;6089708;23;20014;-84
2022/12/22 08:10:00;;;;;;;18.75;10.18;;;;;;;;;;6067218;23;20394;-83
2022/12/22 08:12:25;;;;;;;22.58;10.90;;;;;;;;;;6066858;23;20084;-83
2022/12/22 08:14:53;;;;;;;19.85;10.10;;;;;;;;;;6076762;23;20061;-83
2022/12/22 08:17:19;;;;;;;19.40;10.45;;;;;;;;;;6067259;23;20511;-83
2022/12/22 08:19:44;;;;;;;18.88;10.30;;;;;;;;;;6092510;23;20034;-83
2022/12/22 08:22:11;;;;;;;19.52;10.60;;;;;;;;;;6067258;23;20017;-83
2022/12/22 08:24:36;;;;;;;21.10;11.00;;;;;;;;;;6067697;23;20025;-85
2022/12/22 08:27:06;;;;;;;19.52;11.00;;;;;;;;;;6090614;23;20447;-83
2022/12/22 08:29:35;;;;;;;20.40;10.30;;;;;;;;;;6067619;23;20419;-84
2022/12/22 08:32:00;;;;;;;20.45;10.98;;;;;;;;;;6066628;23;20374;-82
2022/12/22 08:34:25;;;;;;;19.60;11.23;;;;;;;;;;6092100;23;20017;-83
2022/12/22 08:36:54;;;;;;;21.75;11.43;;;;;;;;;;6066483;23;20021;-83
2022/12/22 08:39:20;;;;;;;18.95;10.40;;;;;;;;;;6066859;23;20344;-83
2022/12/22 08:41:51;;;;;;;21.33;10.55;;;;;;;;;;6054355;23;20474;-84
2022/12/22 08:44:22;;;;;;;18.25;10.40;;;;;;;;;;6068327;23;20014;-83
2022/12/22 08:46:48;;;;;;;20.48;10.38;;;;;;;;;;6066559;23;20010;-83
2022/12/22 08:49:14;;;;;;;19.00;10.43;;;;;;;;;;6067621;23;20021;-83
2022/12/22 08:51:39;;;;;;;20.02;10.65;;;;;;;;;;6067256;23;20713;-83
2022/12/22 08:54:05;;;;;;;18.73;9.98;;;;;;;;;;6066951;23;20041;-86
2022/12/22 08:56:30;;;;;;;19.85;10.63;;;;;;;;;;6067281;23;20390;-82
2022/12/22 08:58:56;;;;;;;19.67;9.30;;;;;;;;;;6036538;23;20033;-82
2022/12/22 09:01:22;;;;;;;17.73;9.82;;;;;;;;;;6090333;23;20156;-81
2022/12/22 09:03:51;;;;;;;21.30;10.43;;;;;;;;;;6066119;23;20057;-81
2022/12/22 09:06:18;;;;;;;17.85;10.02;;;;;;;;;;6090265;23;20010;-82
2022/12/22 09:08:43;;;;;;;18.05;9.63;;;;;;;;;;6067977;23;20018;-82
2022/12/22 09:11:08;;;;;;;19.45;9.95;;;;;;;;;;6066310;23;20502;-83
2022/12/22 09:13:34;;;;;;;16.98;9.55;;;;;;;;;;6091781;23;21439;-83
2022/12/22 09:16:06;;;;;;;19.45;10.05;;;;;;;;;;6065879;23;20014;-83
2022/12/22 09:18:32;;;;;;;18.05;10.07;;;;;;;;;;6068531;23;20030;-83
2022/12/22 09:20:58;;;;;;;16.00;9.15;;;;;;;;;;6117879;23;20068;-83
2022/12/22 09:23:23;;;;;;;17.42;9.63;;;;;;;;;;6093100;23;20432;-82
2022/12/22 09:25:55;;;;;;;18.40;8.80;;;;;;;;;;6046446;23;20018;-83
2022/12/22 09:28:57;;;;;;;17.55;9.35;;;;;;;;;;6077325;23;20049;-83
2022/12/22 09:31:24;;;;;;;13.93;8.77;;;;;;;;;;6073741;23;20020;-79
2022/12/22 09:33:50;;;;;;;18.30;8.85;;;;;;;;;;6070144;23;20009;-79
2022/12/22 09:36:17;;;;;;;18.02;9.60;;;;;;;;;;6041679;23;20076;-80
2022/12/22 09:38:43;;;;;;;;;;;;;;;;;;6083294;23;20349;-79
2022/12/22 09:41:35;;;;;;;17.95;9.30;;;;;;;;;;6067223;23;19920;-80
2022/12/22 09:44:03;;;;;;;16.85;9.77;;;;;;;;;;6092746;23;20508;-80
2022/12/22 09:46:31;;;;;;;18.92;10.35;;;;;;;;;;6067475;23;20029;-79
2022/12/22 09:48:57;;;;;;;18.77;10.07;;;;;;;;;;6092976;23;20018;-81
2022/12/22 09:51:23;;;;;;;18.25;9.57;;;;;;;;;;6067534;23;20057;-81
2022/12/22 09:53:54;;;;;;;19.25;10.75;;;;;;;;;;6093364;23;20076;-81
2022/12/22 09:56:20;;;;;;;18.05;10.15;;;;;;;;;;6090727;23;20013;-81
2022/12/22 09:58:46;;;;;;;16.95;9.18;;;;;;;;;;6092811;23;20454;-80
2022/12/22 10:01:31;;;;;;;17.95;9.60;;;;;;;;;;6092273;23;20045;-81
2022/12/22 10:04:06;;;;;;;17.27;8.60;;;;;;;;;;6092693;23;20484;-83
2022/12/22 10:06:33;;;;;;;17.25;8.85;;;;;;;;;;6067829;23;20447;-83
2022/12/22 10:09:17;;;;;;;14.52;8.68;;;;;;;;;;6093155;23;20041;-84
2022/12/22 10:11:53;;;;;;;19.83;9.25;;;;;;;;;;6067309;23;20010;-83
2022/12/22 10:14:19;;;;;;;19.15;9.63;;;;;;;;;;6067789;23;20033;-84
2022/12/22 10:16:45;;;;;;;19.08;9.35;;;;;;;;;;6067789;23;20018;-83
2022/12/22 10:19:12;;;;;;;16.83;8.93;;;;;;;;;;6068530;23;20014;-86
2022/12/22 10:21:39;;;;;;;14.68;8.45;;;;;;;;;;6091795;23;20006;-84
2022/12/22 10:24:28;;;;;;;19.42;9.23;;;;;;;;;;6068312;23;20010;-84
2022/12/22 10:26:58;;;;;;;19.13;9.57;;;;;;;;;;6091255;23;20014;-83
2022/12/22 10:29:24;;;;;;;16.23;9.20;;;;;;;;;;6067909;23;20009;-85
2022/12/22 10:32:10;;;;;;;16.17;8.98;;;;;;;;;;6067924;23;20398;-85
2022/12/22 10:34:35;;;;;;;14.52;8.65;;;;;;;;;;6068170;23;20601;-85
2022/12/22 10:37:03;;;;;;;16.90;8.48;;;;;;;;;;6091227;23;20014;-81
2022/12/22 10:39:31;;;;;;;16.42;8.82;;;;;;;;;;6067723;23;20100;-81
2022/12/22 10:42:01;;;;;;;15.98;8.63;;;;;;;;;;6067641;23;20017;-80
2022/12/22 10:44:33;;;;;;;15.88;8.32;;;;;;;;;;6067667;23;20021;-81
2022/12/22 10:47:00;;;;;;;17.08;8.90;;;;;;;;;;6067828;23;20334;-81
2022/12/22 10:49:37;;;;;;;15.30;8.95;;;;;;;;;;6067801;23;20102;-81
2022/12/22 10:52:12;;;;;;;15.13;9.18;;;;;;;;;;6067554;23;20524;-81
2022/12/22 10:54:41;;;;;;;16.08;9.95;;;;;;;;;;6092507;23;20763;-81
2022/12/22 10:57:12;;;;;;;14.95;8.65;;;;;;;;;;6066601;23;20093;-81
2022/12/22 10:59:56;;;;;;;14.35;7.95;;;;;;;;;;6091948;23;20096;-81
2022/12/22 11:02:21;;;;;;;15.00;8.25;;;;;;;;;;6090392;23;20346;-81
2022/12/22 11:04:47;;;;;;;11.75;7.63;;;;;;;;;;6091649;23;20030;-81
2022/12/22 11:07:12;;;;;;;13.80;7.85;;;;;;;;;;6091139;23;20410;-81
2022/12/22 11:09:38;;;;;;;14.00;8.15;;;;;;;;;;6092276;23;20014;-81
2022/12/22 11:12:25;;;;;;;15.27;8.68;;;;;;;;;;6091245;23;20406;-81
2022/12/22 11:15:27;;;;;;;13.85;7.88;;;;;;;;;;6092175;23;20017;-82
2022/12/22 11:18:09;;;;;;;12.13;8.02;;;;;;;;;;6090803;23;20025;-81
2022/12/22 11:20:46;;;;;;;12.00;7.75;;;;;;;;;;6091118;23;20029;-82
2022/12/22 11:23:37;;;;;;;14.27;7.75;;;;;;;;;;6067756;23;20462;-80
2022/12/22 11:26:03;;;;;;;12.77;7.68;;;;;;;;;;6090021;23;20018;-80
2022/12/22 11:29:10;;;;;;;12.60;8.07;;;;;;;;;;6117709;23;20018;-81
2022/12/22 11:31:42;;;;;;;13.25;8.35;;;;;;;;;;6036510;23;20084;-87
2022/12/22 11:34:41;;;;;;;12.98;7.63;;;;;;;;;;6093861;23;20018;-87
2022/12/22 11:37:09;;;;;;;13.85;7.95;;;;;;;;;;6092423;23;20372;-87
2022/12/22 11:39:37;;;;;;;13.48;8.40;;;;;;;;;;6093923;23;20021;-87
2022/12/22 11:42:09;;;;;;;15.35;8.52;;;;;;;;;;6093057;23;20041;-88
2022/12/22 11:44:50;;;;;;;13.80;8.35;;;;;;;;;;6093111;23;20022;-90
2022/12/22 11:47:29;;;;;;;14.48;8.18;;;;;;;;;;6092452;23;20017;-89
2022/12/22 11:49:59;;;;;;;15.90;8.32;;;;;;;;;;6095155;23;20403;-88
2022/12/22 11:52:42;;;;;;;14.27;8.27;;;;;;;;;;6094710;23;20024;-89
2022/12/22 11:55:30;;;;;;;12.48;7.57;;;;;;;;;;6062925;23;20013;-89
2022/12/22 11:58:20;;;;;;;13.10;7.97;;;;;;;;;;6073479;23;20061;-89
2022/12/22 12:01:09;;;;;;;12.68;8.20;;;;;;;;;;6092643;23;20063;-89
2022/12/22 12:04:11;;;;;;;12.98;8.98;;;;;;;;;;6051420;23;20041;-90
2022/12/22 12:07:14;;;;;;;14.88;8.60;;;;;;;;;;6012443;23;20465;-91
2022/12/22 12:10:05;;;;;;;13.32;8.10;;;;;;;;;;6076088;23;20018;-89
2022/12/22 12:12:52;;;;;;;12.70;8.18;;;;;;;;;;6076804;23;20092;-89
2022/12/22 12:15:17;;;;;;;13.85;7.95;;;;;;;;;;6111867;23;20088;-89
2022/12/22 12:17:59;;;;;;;13.20;8.27;;;;;;;;;;6091954;23;20014;-89
2022/12/22 12:20:39;;;;;;;15.63;9.65;;;;;;;;;;6065033;23;20018;-89
2022/12/22 12:23:26;;;;;;;13.32;8.10;;;;;;;;;;6067005;23;20072;-89
2022/12/22 12:26:13;;;;;;;14.55;8.63;;;;;;;;;;6056803;23;20022;-87
2022/12/22 12:29:12;;;;;;;13.98;8.82;;;;;;;;;;6079312;23;20073;-88
2022/12/22 12:31:58;;;;;;;14.45;8.10;;;;;;;;;;6116988;23;20096;-88
2022/12/22 12:34:25;;;;;;;14.05;8.43;;;;;;;;;;6091612;23;20033;-87
2022/12/22 12:37:00;;;;;;;13.90;9.05;;;;;;;;;;6066184;23;20463;-88
2022/12/22 12:39:56;;;;;;;13.48;8.07;;;;;;;;;;6067160;23;20406;-88
2022/12/22 12:42:33;;;;;;;14.90;9.25;;;;;;;;;;6113666;23;20060;-89
2022/12/22 12:45:01;;;;;;;15.68;9.35;;;;;;;;;;6067106;23;20502;-88
2022/12/22 12:47:26;;;;;;;13.48;8.57;;;;;;;;;;6066889;23;20022;-87
2022/12/22 12:49:57;;;;;;;13.50;8.45;;;;;;;;;;6117152;23;20697;-88
2022/12/22 12:52:38;;;;;;;14.70;8.68;;;;;;;;;;6115211;23;20032;-88
2022/12/22 12:55:37;;;;;;;14.18;8.68;;;;;;;;;;6089688;23;20052;-88
2022/12/22 12:58:03;;;;;;;15.90;9.15;;;;;;;;;;6115556;23;20377;-87
2022/12/22 13:00:34;;;;;;;13.73;8.60;;;;;;;;;;6066840;23;20033;-87
2022/12/22 13:03:06;;;;;;;14.95;9.02;;;;;;;;;;6090495;23;20017;-87
2022/12/22 13:05:35;;;;;;;14.50;8.68;;;;;;;;;;6089610;23;20462;-86
2022/12/22 13:08:08;;;;;;;14.00;8.60;;;;;;;;;;6091332;23;20014;-87
2022/12/22 13:10:37;;;;;;;14.57;7.93;;;;;;;;;;6067525;23;20026;-87
2022/12/22 13:13:03;;;;;;;13.45;8.35;;;;;;;;;;6067662;23;20029;-87
2022/12/22 13:15:32;;;;;;;16.60;8.05;;;;;;;;;;6072505;23;20432;-87
2022/12/22 13:17:58;;;;;;;13.20;8.93;;;;;;;;;;6047372;23;20014;-87
2022/12/22 13:20:33;;;;;;;15.98;8.68;;;;;;;;;;6065906;23;20044;-86
2022/12/22 13:23:00;;;;;;;14.45;8.38;;;;;;;;;;6067399;23;20017;-87
2022/12/22 13:25:49;;;;;;;13.90;8.93;;;;;;;;;;6065961;23;20018;-87
2022/12/22 13:28:16;;;;;;;14.82;8.45;;;;;;;;;;6091151;23;20383;-86
2022/12/22 13:30:47;;;;;;;13.60;8.23;;;;;;;;;;6067455;23;20010;-87
2022/12/22 13:33:15;;;;;;;13.38;8.32;;;;;;;;;;6115623;23;20014;-87
2022/12/22 13:35:41;;;;;;;14.27;8.73;;;;;;;;;;6067185;23;20006;-87
2022/12/22 13:38:25;;;;;;;13.52;8.75;;;;;;;;;;6066165;23;20029;-87
2022/12/22 13:40:51;;;;;;;12.27;7.88;;;;;;;;;;6116041;23;20017;-88
2022/12/22 13:43:17;;;;;;;15.38;8.90;;;;;;;;;;6068508;23;20014;-88
2022/12/22 13:45:48;;;;;;;13.30;8.77;;;;;;;;;;6067865;23;20478;-88
2022/12/22 13:48:23;;;;;;;13.10;7.95;;;;;;;;;;6067963;23;20024;-88
2022/12/22 13:50:52;;;;;;;15.27;8.65;;;;;;;;;;6091449;23;20068;-87
2022/12/22 13:53:41;;;;;;;16.10;8.85;;;;;;;;;;6067990;23;20029;-88
2022/12/22 13:56:21;;;;;;;13.30;7.65;;;;;;;;;;6065660;23;20367;-91
2022/12/22 13:58:52;;;;;;;12.18;7.78;;;;;;;;;;6090470;23;20021;-90
2022/12/22 14:01:18;;;;;;;14.50;8.27;;;;;;;;;;6041573;23;20537;-90
2022/12/22 14:03:49;;;;;;;13.52;7.47;;;;;;;;;;6040091;23;20348;-91
2022/12/22 14:06:28;;;;;;;13.27;7.43;;;;;;;;;;6022917;23;20066;-90
2022/12/22 14:09:09;;;;;;;14.18;7.78;;;;;;;;;;6077834;23;20081;-90
2022/12/22 14:11:34;;;;;;;11.63;7.65;;;;;;;;;;6029866;23;20049;-90
2022/12/22 14:14:00;;;;;;;12.38;7.22;;;;;;;;;;6062438;23;20354;-90
2022/12/22 14:16:25;;;;;;;10.98;7.00;;;;;;;;;;6068716;23;20017;-90
2022/12/22 14:18:52;;;;;;;12.02;7.03;;;;;;;;;;6094025;23;20014;-90
2022/12/22 14:21:20;;;;;;;10.60;6.28;;;;;;;;;;6082283;23;20022;-89
2022/12/22 14:23:48;;;;;;;11.10;6.45;;;;;;;;;;6068305;23;20447;-90
2022/12/22 14:26:18;;;;;;;11.82;6.88;;;;;;;;;;6077305;23;20393;-90
2022/12/22 14:28:54;;;;;;;9.43;6.63;;;;;;;;;;6090671;23;20082;-90
2022/12/22 14:31:25;;;;;;;11.93;6.40;;;;;;;;;;6112653;23;20074;-90
2022/12/22 14:37:50;;;;;;;9.63;5.93;;;;;;;;;;5886147;23;20029;-90
2022/12/22 14:40:45;;;;;;;8.98;6.20;;;;;;;;;;6012713;23;20514;-90
2022/12/22 14:43:16;;;;;;;10.27;6.38;;;;;;;;;;5999502;23;20018;-89
2022/12/22 14:45:43;;;;;;;9.82;6.28;;;;;;;;;;6082511;23;20166;-90
2022/12/22 14:48:09;;;;;;;8.90;5.50;;;;;;;;;;6068277;23;20018;-90
2022/12/22 14:50:35;;;;;;;9.88;5.72;;;;;;;;;;6067111;23;20096;-85
2022/12/22 14:53:03;;;;;;;11.10;5.93;;;;;;;;;;6038000;23;20022;-88
2022/12/22 14:55:48;;;;;;;8.57;4.97;;;;;;;;;;6083064;23;20014;-85
2022/12/22 14:58:35;;;;;;;8.00;4.78;;;;;;;;;;6081778;23;20018;-86
2022/12/22 15:01:13;;;;;;;7.40;4.75;;;;;;;;;;6066760;23;20010;-85
2022/12/22 15:03:39;;;;;;;7.90;4.35;;;;;;;;;;6056854;23;20044;-86
2022/12/22 15:06:26;;;;;;;7.75;4.75;;;;;;;;;;6066828;23;20331;-86
2022/12/22 15:09:03;;;;;;;7.43;4.40;;;;;;;;;;6092345;23;20014;-86
2022/12/22 15:11:30;;;;;;;7.13;4.20;;;;;;;;;;6091543;23;20527;-87
2022/12/22 15:13:55;;;;;;;10.23;4.50;;;;;;;;;;6068458;23;20024;-86
2022/12/22 15:16:22;;;;;;;8.30;4.65;;;;;;;;;;6090920;23;20389;-86
2022/12/22 15:18:51;;;;;;;7.88;4.05;;;;;;;;;;6029321;23;20383;-87
2022/12/22 15:21:21;;;;;;;7.43;4.20;;;;;;;;;;6025487;23;20020;-86
2022/12/22 15:23:47;;;;;;;7.93;4.35;;;;;;;;;;6092046;23;20084;-87
2022/12/22 15:26:13;;;;;;;8.23;4.80;;;;;;;;;;6055075;23;20338;-86
2022/12/22 15:28:39;;;;;;;7.07;4.22;;;;;;;;;;6068375;23;20097;-87
2022/12/22 15:31:15;;;;;;;8.02;4.78;;;;;;;;;;6090732;23;20093;-87
2022/12/22 15:33:41;;;;;;;9.30;5.07;;;;;;;;;;6092654;23;20451;-87
2022/12/22 15:36:11;;;;;;;8.30;5.38;;;;;;;;;;6065916;23;20018;-87
2022/12/22 15:38:37;;;;;;;8.68;4.93;;;;;;;;;;6053186;23;20157;-88
2022/12/22 15:41:03;;;;;;;9.88;5.68;;;;;;;;;;6066785;23;20014;-86
2022/12/22 15:43:29;;;;;;;9.60;5.40;;;;;;;;;;6079662;23;20104;-85
2022/12/22 15:45:54;;;;;;;10.50;6.30;;;;;;;;;;6067113;23;20037;-86
2022/12/22 15:48:27;;;;;;;9.82;5.72;;;;;;;;;;6092486;23;20010;-86
2022/12/22 15:50:52;;;;;;;10.68;6.20;;;;;;;;;;6067138;23;20017;-86
2022/12/22 15:53:18;;;;;;;11.35;6.63;;;;;;;;;;6041229;23;20073;-86
2022/12/22 15:55:49;;;;;;;9.93;6.10;;;;;;;;;;6056590;23;20096;-87
2022/12/22 15:58:17;;;;;;;14.15;6.55;;;;;;;;;;6091846;23;20030;-87
2022/12/22 16:00:42;;;;;;;10.35;6.20;;;;;;;;;;6067049;23;20021;-87
2022/12/22 16:03:09;;;;;;;10.65;6.93;;;;;;;;;;6067713;23;20354;-87
2022/12/22 16:05:35;;;;;;;12.15;6.65;;;;;;;;;;6066805;23;20026;-88
2022/12/22 16:08:01;;;;;;;12.13;6.95;;;;;;;;;;6092229;23;20328;-86
2022/12/22 16:10:29;;;;;;;11.65;6.80;;;;;;;;;;6038707;23;20455;-86
2022/12/22 16:13:16;;;;;;;12.10;7.10;;;;;;;;;;6058389;23;20016;-86
2022/12/22 16:15:45;;;;;;;13.32;7.05;;;;;;;;;;6002722;23;20164;-86
2022/12/22 16:18:11;;;;;;;15.38;7.82;;;;;;;;;;6005184;23;20023;-86
2022/12/22 16:20:38;;;;;;;15.32;7.60;;;;;;;;;;6003581;23;20027;-88
2022/12/22 16:23:05;;;;;;;15.82;8.68;;;;;;;;;;6005143;23;20102;-86
2022/12/22 16:25:36;;;;;;;16.08;8.77;;;;;;;;;;6003413;23;20046;-87
2022/12/22 16:28:01;;;;;;;15.10;8.73;;;;;;;;;;6004083;23;20231;-85
2022/12/22 16:30:32;;;;;;;17.02;9.48;;;;;;;;;;6003415;23;20079;-86
2022/12/22 16:32:57;;;;;;;16.75;8.93;;;;;;;;;;5982038;23;20771;-86
2022/12/22 16:35:25;;;;;;;16.00;9.02;;;;;;;;;;6003176;23;20023;-87
2022/12/22 16:37:50;;;;;;;15.98;8.45;;;;;;;;;;6005318;23;20042;-87
2022/12/22 16:40:17;;;;;;;17.23;9.48;;;;;;;;;;6026637;23;20527;-86
2022/12/22 16:43:09;;;;;;;16.85;8.52;;;;;;;;;;6004898;23;20412;-85
2022/12/22 16:45:35;;;;;;;17.33;8.73;;;;;;;;;;6026900;23;20047;-87
2022/12/22 16:48:04;;;;;;;16.77;9.07;;;;;;;;;;6005559;23;20019;-86
2022/12/22 16:50:32;;;;;;;15.68;8.88;;;;;;;;;;6027128;23;20547;-86
2022/12/22 16:53:03;;;;;;;16.85;8.98;;;;;;;;;;6059229;23;20018;-85
2022/12/22 16:55:29;;;;;;;15.98;8.23;;;;;;;;;;6066865;23;20010;-85
2022/12/22 16:58:00;;;;;;;17.55;9.50;;;;;;;;;;6092739;23;20052;-86
2022/12/22 17:00:28;;;;;;;16.90;8.48;;;;;;;;;;6090154;23;20093;-85
2022/12/22 17:02:56;;;;;;;17.58;9.13;;;;;;;;;;6067315;23;20141;-85
2022/12/22 17:05:24;;;;;;;;;;;;;;;;;;6066780;23;20447;-84
2022/12/22 17:07:49;;;;;;;17.30;8.65;;;;;;;;;;6117241;23;19909;-82
2022/12/22 17:10:16;;;;;;;18.65;9.23;;;;;;;;;;6090798;23;20056;-82
2022/12/22 17:12:41;;;;;;;18.15;9.55;;;;;;;;;;6067931;23;20501;-82
2022/12/22 17:15:16;;;;;;;17.75;9.57;;;;;;;;;;6067344;23;20018;-83
2022/12/22 17:17:41;;;;;;;15.43;8.88;;;;;;;;;;6090513;23;20092;-82
2022/12/22 17:20:12;;;;;;;16.20;8.65;;;;;;;;;;6066733;23;20122;-83
2022/12/22 17:22:38;;;;;;;18.35;9.63;;;;;;;;;;6090621;23;20022;-83
2022/12/22 17:25:05;;;;;;;16.48;8.65;;;;;;;;;;6091206;23;20021;-83
2022/12/22 17:27:31;;;;;;;17.52;8.57;;;;;;;;;;6065936;23;20018;-82
2022/12/22 17:29:59;;;;;;;16.98;9.65;;;;;;;;;;6091213;23;20495;-82
2022/12/22 17:32:25;;;;;;;16.98;8.93;;;;;;;;;;6066594;23;20092;-82
2022/12/22 17:34:50;;;;;;;16.40;9.00;;;;;;;;;;6066766;23;20061;-82
2022/12/22 17:37:22;;;;;;;15.95;8.43;;;;;;;;;;6067209;23;20018;-82
2022/12/22 17:39:50;;;;;;;19.25;9.93;;;;;;;;;;6067555;23;20022;-83
2022/12/22 17:42:25;;;;;;;18.33;10.15;;;;;;;;;;6069012;23;20017;-82
2022/12/22 17:44:51;;;;;;;17.60;10.05;;;;;;;;;;6092227;23;20020;-82
2022/12/22 17:47:20;;;;;;;21.25;10.93;;;;;;;;;;6068692;23;20096;-83
2022/12/22 17:49:46;;;;;;;21.73;10.57;;;;;;;;;;6092217;23;20097;-82
2022/12/22 17:52:22;;;;;;;22.10;10.43;;;;;;;;;;6091280;23;20538;-83
2022/12/22 17:54:56;;;;;;;22.25;10.02;;;;;;;;;;6068328;23;20789;-82
2022/12/22 17:57:33;;;;;;;20.40;10.10;;;;;;;;;;6091462;23;20041;-83
2022/12/22 17:59:59;;;;;;;19.38;10.05;;;;;;;;;;6092779;23;20465;-83
2022/12/22 18:02:25;;;;;;;16.65;9.23;;;;;;;;;;6091818;23;20018;-83
2022/12/22 18:04:51;;;;;;;19.20;9.30;;;;;;;;;;6068411;23;20046;-82
2022/12/22 18:07:23;;;;;;;20.02;10.10;;;;;;;;;;6091978;23;20056;-82
2022/12/22 18:09:55;;;;;;;18.67;9.98;;;;;;;;;;6068547;23;20032;-82
2022/12/22 18:12:21;;;;;;;22.08;11.07;;;;;;;;;;6091585;23;20037;-82
2022/12/22 18:14:56;;;;;;;21.92;10.98;;;;;;;;;;6068682;23;20093;-83
2022/12/22 18:17:29;;;;;;;19.70;10.75;;;;;;;;;;6064866;23;20014;-82
2022/12/22 18:19:55;;;;;;;21.77;11.02;;;;;;;;;;6067984;23;20018;-83
2022/12/22 18:22:23;;;;;;;21.10;10.70;;;;;;;;;;6091110;23;20014;-81
2022/12/22 18:24:49;;;;;;;20.77;10.95;;;;;;;;;;6067843;23;20018;-81